
Distance (Route):
Temperature : -53.4°C
Humidity : -1.0%
Pressure : -1.0hPa| Receiver | Date | Latitude | Longitude | Direction | Speed | Altitude | Climb | Temperature | Humidity | Pressure | Voltage | Killtimer | Uptime | BKT | XDATA |
|---|---|---|---|---|---|---|---|---|---|---|---|---|---|---|---|
| DB0ND-19 | 2026-09-03 07:16:44 | 46.51439 | 3.45589 | 137° | 106km/h | 11625m | -4.6m/s | -53.4°C | -1.0% | -1.0hPa | 0V | 00:00:00 | 00:00:00 | 00:00:00 | |
| DB0ND-19 | 2026-09-03 07:15:42 | 46.52490 | 3.44250 | 129° | 95km/h | 11905m | -4.8m/s | -55.9°C | -1.0% | -1.0hPa | 0V | 00:00:00 | 00:00:00 | 00:00:00 | |
| DB0ND-19 | 2026-09-03 07:15:11 | 46.53103 | 3.43433 | 130° | 95km/h | 12061m | -4.9m/s | -57.2°C | -1.0% | -1.0hPa | 0V | 00:00:00 | 00:00:00 | 00:00:00 | |
| DB0ND-19 | 2026-09-03 07:14:40 | 46.53363 | 3.42961 | 130° | 122km/h | 12133m | -5.0m/s | -57.9°C | -1.0% | -1.0hPa | 0V | 00:00:00 | 00:00:00 | 00:00:00 | |
| DB0ND-19 | 2026-09-03 07:14:09 | 46.53997 | 3.42087 | 129° | 108km/h | 12289m | -5.2m/s | -58.9°C | -1.0% | -1.0hPa | 0V | 00:00:00 | 00:00:00 | 00:00:00 | |
| DB0ND-19 | 2026-09-03 07:13:38 | 46.54834 | 3.40982 | 140° | 102km/h | 12485m | -5.5m/s | -59.6°C | -1.0% | -1.0hPa | 0V | 00:00:00 | 00:00:00 | 00:00:00 | |
| DB0UT-7 | 2026-09-03 07:13:14 | 46.55159 | 3.40477 | 135° | 113km/h | 12579m | -5.4m/s | 0°C | 0% | 0hPa | 0V | 00:00:00 | 00:00:00 | 00:00:00 | |
| DB0ND-19 | 2026-09-03 07:13:07 | 46.55297 | 3.40291 | 130° | 99km/h | 12615m | -4.9m/s | -59.4°C | -1.0% | -1.0hPa | 0V | 00:00:00 | 00:00:00 | 00:00:00 | |
| DB0ND-19 | 2026-09-03 07:12:36 | 46.55936 | 3.39052 | 134° | 111km/h | 12813m | -5.3m/s | -60.6°C | -1.0% | -1.0hPa | 0V | 00:00:00 | 00:00:00 | 00:00:00 | |
| DB0ND-19 | 2026-09-03 07:12:04 | 46.56309 | 3.38315 | 136° | 117km/h | 12924m | -4.9m/s | -61.1°C | -1.0% | -1.0hPa | 0V | 00:00:00 | 00:00:00 | 00:00:00 | |
| DB0UT-7 | 2026-09-03 07:11:59 | 46.56399 | 3.38207 | 137° | 104km/h | 12944m | -4.9m/s | 0°C | 0% | 0hPa | 0V | 00:00:00 | 00:00:00 | 00:00:00 | |
| DB0ND-19 | 2026-09-03 07:11:33 | 46.56836 | 3.37404 | 126° | 91km/h | 13071m | -4.9m/s | -62.4°C | -1.0% | -1.0hPa | 0V | 00:00:00 | 00:00:00 | 00:00:00 | |
| DB0UT-7 | 2026-09-03 07:10:18 | 46.58204 | 3.34981 | 131° | 115km/h | 13451m | -5.0m/s | 0°C | 0% | 0hPa | 0V | 00:00:00 | 00:00:00 | 00:00:00 | |
| DB0UT-7 | 2026-09-03 07:09:48 | 46.58784 | 3.34092 | 140° | 113km/h | 13605m | -4.8m/s | 0°C | 0% | 0hPa | 0V | 00:00:00 | 00:00:00 | 00:00:00 | |
| DB0ND-19 | 2026-09-03 07:08:58 | 46.59535 | 3.32533 | 124° | 86km/h | 13875m | -5.2m/s | -63.7°C | -1.0% | -1.0hPa | 0V | 00:00:00 | 00:00:00 | 00:00:00 | |
| DB0UT-7 | 2026-09-03 07:08:35 | 46.59877 | 3.31770 | 134° | 106km/h | 14003m | -5.4m/s | 0°C | 0% | 0hPa | 0V | 00:00:00 | 00:00:00 | 00:00:00 | |
| DB0UT-7 | 2026-09-03 07:08:05 | 46.60329 | 3.30806 | 115° | 110km/h | 14171m | -5.2m/s | 0°C | 0% | 0hPa | 0V | 00:00:00 | 00:00:00 | 00:00:00 | |
| DB0UT-7 | 2026-09-03 07:07:02 | 46.61326 | 3.28814 | 118° | 93km/h | 14518m | -5.8m/s | 0°C | 0% | 0hPa | 0V | 00:00:00 | 00:00:00 | 00:00:00 | |
| DB0UT-7 | 2026-09-03 07:06:32 | 46.61739 | 3.27978 | 126° | 91km/h | 14697m | -5.5m/s | 0°C | 0% | 0hPa | 0V | 00:00:00 | 00:00:00 | 00:00:00 | |
| DB0ND-19 | 2026-09-03 07:05:52 | 46.62435 | 3.26671 | 125° | 55km/h | 15007m | -5.8m/s | -61.0°C | -1.0% | -1.0hPa | 0V | 00:00:00 | 00:00:00 | 00:00:00 | |
| DB0ND-19 | 2026-09-03 07:05:21 | 46.62538 | 3.26251 | 128° | 73km/h | 15114m | -5.8m/s | -61.0°C | -1.0% | -1.0hPa | 0V | 00:00:00 | 00:00:00 | 00:00:00 | |
| DB0ND-19 | 2026-09-03 07:04:50 | 46.62694 | 3.25492 | 91° | 75km/h | 15303m | -6.2m/s | -60.4°C | -1.0% | -1.0hPa | 0V | 00:00:00 | 00:00:00 | 00:00:00 | |
| DB0ND-19 | 2026-09-03 07:04:19 | 46.62990 | 3.24667 | 138° | 73km/h | 15497m | -5.6m/s | -59.4°C | -1.0% | -1.0hPa | 0V | 00:00:00 | 00:00:00 | 00:00:00 | |
| DB0ND-19 | 2026-09-03 07:03:48 | 46.63158 | 3.24023 | 85° | 77km/h | 15691m | -6.9m/s | -59.3°C | -1.0% | -1.0hPa | 0V | 00:00:00 | 00:00:00 | 00:00:00 | |
| DB0UT-7 | 2026-09-03 07:03:29 | 46.63245 | 3.23570 | 90° | 75km/h | 15816m | -5.9m/s | 0°C | 0% | 0hPa | 0V | 00:00:00 | 00:00:00 | 00:00:00 | |
| DB0ND-19 | 2026-09-03 07:03:17 | 46.63418 | 3.23068 | 100° | 66km/h | 15951m | -6.1m/s | -59.2°C | -1.0% | -1.0hPa | 0V | 00:00:00 | 00:00:00 | 00:00:00 | |
| DB0UT-7 | 2026-09-03 07:02:59 | 46.63498 | 3.22859 | 138° | 64km/h | 16008m | -6.2m/s | 0°C | 0% | 0hPa | 0V | 00:00:00 | 00:00:00 | 00:00:00 | |
| DB0ND-19 | 2026-09-03 07:02:46 | 46.63630 | 3.22654 | 112° | 69km/h | 16100m | -6.7m/s | -59.7°C | -1.0% | -1.0hPa | 0V | 00:00:00 | 00:00:00 | 00:00:00 | |
| DB0ND-19 | 2026-09-03 07:02:15 | 46.63875 | 3.22249 | 158° | 31km/h | 16295m | -5.9m/s | -59.9°C | -1.0% | -1.0hPa | 0V | 00:00:00 | 00:00:00 | 00:00:00 | |
| DB0UT-7 | 2026-09-03 07:01:58 | 46.63888 | 3.22042 | 121° | 47km/h | 16402m | -6.7m/s | 0°C | 0% | 0hPa | 0V | 00:00:00 | 00:00:00 | 00:00:00 | |
| DB0UT-7 | 2026-09-03 07:01:28 | 46.64038 | 3.21619 | 83° | 55km/h | 16604m | -7.3m/s | 0°C | 0% | 0hPa | 0V | 00:00:00 | 00:00:00 | 00:00:00 | |
| DB0ND-19 | 2026-09-03 07:01:13 | 46.64124 | 3.21345 | 125° | 18km/h | 16713m | -6.1m/s | -59.5°C | -1.0% | -1.0hPa | 0V | 00:00:00 | 00:00:00 | 00:00:00 | |
| DB0UT-7 | 2026-09-03 07:00:58 | 46.64165 | 3.21088 | 149° | 44km/h | 16807m | -6.7m/s | 0°C | 0% | 0hPa | 0V | 00:00:00 | 00:00:00 | 00:00:00 | |
| DB0ND-19 | 2026-09-03 07:00:42 | 46.64257 | 3.20851 | 163° | 26km/h | 16935m | -6.9m/s | -59.2°C | -1.0% | -1.0hPa | 0V | 00:00:00 | 00:00:00 | 00:00:00 | |
| DB0UT-7 | 2026-09-03 07:00:05 | 46.64407 | 3.20401 | 116° | 42km/h | 17165m | -6.8m/s | 0°C | 0% | 0hPa | 0V | 00:00:00 | 00:00:00 | 00:00:00 | |
| DB0UT-7 | 2026-09-03 06:59:34 | 46.64514 | 3.19952 | 70° | 49km/h | 17368m | -6.7m/s | 0°C | 0% | 0hPa | 0V | 00:00:00 | 00:00:00 | 00:00:00 | |
| DB0ND-19 | 2026-09-03 06:59:09 | 46.64622 | 3.19578 | 120° | 53km/h | 17548m | -7.8m/s | -59.2°C | -1.0% | -1.0hPa | 0V | 00:00:00 | 00:00:00 | 00:00:00 | |
| DB0UT-7 | 2026-09-03 06:58:52 | 46.64761 | 3.19244 | 120° | 57km/h | 17613m | 4.2m/s | 0°C | 0% | 0hPa | 0V | 00:00:00 | 00:00:00 | 00:00:00 | |
| DB0UT-7 | 2026-09-03 06:58:21 | 46.64952 | 3.18695 | 111° | 42km/h | 17476m | 5.0m/s | 0°C | 0% | 0hPa | 0V | 00:00:00 | 00:00:00 | 00:00:00 | |
| DB0ND-19 | 2026-09-03 06:58:07 | 46.65016 | 3.18444 | 109° | 47km/h | 17407m | 4.8m/s | -59.7°C | -1.0% | -1.0hPa | 0V | 00:00:00 | 00:00:00 | 00:00:00 | |
| DB0UT-7 | 2026-09-03 06:57:52 | 46.65050 | 3.18262 | 106° | 37km/h | 17345m | 5.1m/s | 0°C | 0% | 0hPa | 0V | 00:00:00 | 00:00:00 | 00:00:00 | |
| DB0ND-19 | 2026-09-03 06:57:36 | 46.65098 | 3.18040 | 113° | 37km/h | 17274m | 5.5m/s | -59.5°C | -1.0% | -1.0hPa | 0V | 00:00:00 | 00:00:00 | 00:00:00 | |
| DB0ND-19 | 2026-09-03 06:57:05 | 46.65248 | 3.17627 | 116° | 40km/h | 17133m | 4.1m/s | -59.2°C | -1.0% | -1.0hPa | 0V | 00:00:00 | 00:00:00 | 00:00:00 | |
| DB0UT-7 | 2026-09-03 06:56:42 | 46.65338 | 3.17350 | 129° | 44km/h | 17030m | 5.0m/s | 0°C | 0% | 0hPa | 0V | 00:00:00 | 00:00:00 | 00:00:00 | |
| DB0ND-19 | 2026-09-03 06:56:34 | 46.65380 | 3.17227 | 116° | 44km/h | 16993m | 4.9m/s | -59.3°C | -1.0% | -1.0hPa | 0V | 00:00:00 | 00:00:00 | 00:00:00 | |
| DB0UT-7 | 2026-09-03 06:56:12 | 46.65495 | 3.16928 | 110° | 46km/h | 16890m | 4.6m/s | 0°C | 0% | 0hPa | 0V | 00:00:00 | 00:00:00 | 00:00:00 | |
| DB0ND-19 | 2026-09-03 06:56:03 | 46.65539 | 3.16787 | 108° | 40km/h | 16850m | 4.3m/s | -58.9°C | -1.0% | -1.0hPa | 0V | 00:00:00 | 00:00:00 | 00:00:00 | |
| DB0UT-7 | 2026-09-03 06:55:42 | 46.65622 | 3.16469 | 115° | 49km/h | 16750m | 4.6m/s | 0°C | 0% | 0hPa | 0V | 00:00:00 | 00:00:00 | 00:00:00 | |
| DB0ND-19 | 2026-09-03 06:55:31 | 46.65680 | 3.16263 | 116° | 49km/h | 16705m | 3.5m/s | -59.4°C | -1.0% | -1.0hPa | 0V | 00:00:00 | 00:00:00 | 00:00:00 | |
| DB0UT-7 | 2026-09-03 06:55:11 | 46.65788 | 3.15954 | 112° | 49km/h | 16620m | 3.5m/s | 0°C | 0% | 0hPa | 0V | 00:00:00 | 00:00:00 | 00:00:00 | |
| DB0ND-19 | 2026-09-03 06:55:00 | 46.65842 | 3.15757 | 115° | 47km/h | 16563m | 5.0m/s | -59.8°C | -1.0% | -1.0hPa | 0V | 00:00:00 | 00:00:00 | 00:00:00 | |
| DB0UT-7 | 2026-09-03 06:54:42 | 46.65921 | 3.15480 | 112° | 42km/h | 16481m | 5.2m/s | 0°C | 0% | 0hPa | 0V | 00:00:00 | 00:00:00 | 00:00:00 | |
| DB0UT-7 | 2026-09-03 06:54:11 | 46.66046 | 3.15049 | 123° | 44km/h | 16325m | 4.7m/s | 0°C | 0% | 0hPa | 0V | 00:00:00 | 00:00:00 | 00:00:00 | |
| DB0ND-19 | 2026-09-03 06:53:58 | 46.66119 | 3.14884 | 126° | 40km/h | 16289m | 4.4m/s | -60.2°C | -1.0% | -1.0hPa | 0V | 00:00:00 | 00:00:00 | 00:00:00 | |
| DB0UT-7 | 2026-09-03 06:53:18 | 46.66451 | 3.14323 | 128° | 64km/h | 16110m | 4.7m/s | 0°C | 0% | 0hPa | 0V | 00:00:00 | 00:00:00 | 00:00:00 | |
| DB0UT-7 | 2026-09-03 06:52:47 | 46.66719 | 3.13712 | 115° | 69km/h | 15978m | 4.5m/s | 0°C | 0% | 0hPa | 0V | 00:00:00 | 00:00:00 | 00:00:00 | |
| DB0UT-7 | 2026-09-03 06:52:17 | 46.66874 | 3.12985 | 97° | 66km/h | 15842m | 3.8m/s | 0°C | 0% | 0hPa | 0V | 00:00:00 | 00:00:00 | 00:00:00 | |
| DB0UT-7 | 2026-09-03 06:51:47 | 46.67005 | 3.12292 | 111° | 60km/h | 15707m | 3.6m/s | 0°C | 0% | 0hPa | 0V | 00:00:00 | 00:00:00 | 00:00:00 | |
| DB0UT-7 | 2026-09-03 06:51:17 | 46.67196 | 3.11678 | 122° | 75km/h | 15578m | 5.0m/s | 0°C | 0% | 0hPa | 0V | 00:00:00 | 00:00:00 | 00:00:00 | |
| DB0UT-7 | 2026-09-03 06:50:47 | 46.67473 | 3.10974 | 111° | 73km/h | 15444m | 4.9m/s | 0°C | 0% | 0hPa | 0V | 00:00:00 | 00:00:00 | 00:00:00 | |
| DB0UT-7 | 2026-09-03 06:50:16 | 46.67627 | 3.10167 | 97° | 64km/h | 15312m | 3.2m/s | 0°C | 0% | 0hPa | 0V | 00:00:00 | 00:00:00 | 00:00:00 | |
| DB0ND-19 | 2026-09-03 06:49:50 | 46.67708 | 3.09532 | 101° | 57km/h | 15194m | 4.0m/s | -61.3°C | -1.0% | -1.0hPa | 0V | 00:00:00 | 00:00:00 | 00:00:00 | |
| DB0UT-7 | 2026-09-03 06:49:14 | 46.67885 | 3.08813 | 120° | 69km/h | 15040m | 3.3m/s | 0°C | 0% | 0hPa | 0V | 00:00:00 | 00:00:00 | 00:00:00 | |
| DB0ND-19 | 2026-09-03 06:48:48 | 46.68104 | 3.08219 | 119° | 77km/h | 14933m | 5.0m/s | -60.7°C | -1.0% | -1.0hPa | 0V | 00:00:00 | 00:00:00 | 00:00:00 | |
| DB0UT-7 | 2026-09-03 06:48:24 | 46.68330 | 3.07703 | 129° | 77km/h | 14834m | 3.6m/s | 0°C | 0% | 0hPa | 0V | 00:00:00 | 00:00:00 | 00:00:00 | |
| DB0ND-19 | 2026-09-03 06:48:17 | 46.68440 | 3.07517 | 127° | 73km/h | 14800m | 4.4m/s | -61.0°C | -1.0% | -1.0hPa | 0V | 00:00:00 | 00:00:00 | 00:00:00 | |
| DB0UT-7 | 2026-09-03 06:47:54 | 46.68697 | 3.07026 | 126° | 84km/h | 14703m | 3.7m/s | 0°C | 0% | 0hPa | 0V | 00:00:00 | 00:00:00 | 00:00:00 | |
| DB0ND-19 | 2026-09-03 06:47:46 | 46.68803 | 3.06799 | 121° | 82km/h | 14669m | 5.0m/s | -60.9°C | -1.0% | -1.0hPa | 0V | 00:00:00 | 00:00:00 | 00:00:00 | |
| DB0UT-7 | 2026-09-03 06:47:24 | 46.69064 | 3.06262 | 125° | 91km/h | 14569m | 4.9m/s | 0°C | 0% | 0hPa | 0V | 00:00:00 | 00:00:00 | 00:00:00 | |
| DB0ND-19 | 2026-09-03 06:47:15 | 46.69180 | 3.05981 | 119° | 91km/h | 14538m | 3.7m/s | -61.8°C | -1.0% | -1.0hPa | 0V | 00:00:00 | 00:00:00 | 00:00:00 | |
| DB0UT-7 | 2026-09-03 06:46:55 | 46.69434 | 3.05419 | 125° | 108km/h | 14448m | 4.6m/s | 0°C | 0% | 0hPa | 0V | 00:00:00 | 00:00:00 | 00:00:00 | |
| DB0UT-7 | 2026-09-03 06:46:23 | 46.69903 | 3.04391 | 124° | 110km/h | 14312m | 4.5m/s | 0°C | 0% | 0hPa | 0V | 00:00:00 | 00:00:00 | 00:00:00 | |
| DB0UT-7 | 2026-09-03 06:45:53 | 46.70315 | 3.03375 | 123° | 108km/h | 14178m | 4.9m/s | 0°C | 0% | 0hPa | 0V | 00:00:00 | 00:00:00 | 00:00:00 | |
| DB0UT-7 | 2026-09-03 06:44:51 | 46.71194 | 3.01244 | 122° | 111km/h | 13901m | 4.6m/s | 0°C | 0% | 0hPa | 0V | 00:00:00 | 00:00:00 | 00:00:00 | |
| DB0UT-7 | 2026-09-03 06:44:21 | 46.71646 | 3.00205 | 124° | 106km/h | 13776m | 5.1m/s | 0°C | 0% | 0hPa | 0V | 00:00:00 | 00:00:00 | 00:00:00 | |
| DB0UT-7 | 2026-09-03 06:43:51 | 46.72084 | 2.99216 | 121° | 102km/h | 13652m | 5.2m/s | 0°C | 0% | 0hPa | 0V | 00:00:00 | 00:00:00 | 00:00:00 | |
| DB0UT-7 | 2026-09-03 06:43:21 | 46.72509 | 2.98287 | 131° | 110km/h | 13490m | 2.8m/s | 0°C | 0% | 0hPa | 0V | 00:00:00 | 00:00:00 | 00:00:00 | |
| DB0UT-7 | 2026-09-03 06:42:49 | 46.73071 | 2.97300 | 132° | 119km/h | 13390m | 4.5m/s | 0°C | 0% | 0hPa | 0V | 00:00:00 | 00:00:00 | 00:00:00 | |
| DB0UT-7 | 2026-09-03 06:42:19 | 46.73651 | 2.96292 | 128° | 117km/h | 13265m | 4.0m/s | 0°C | 0% | 0hPa | 0V | 00:00:00 | 00:00:00 | 00:00:00 | |
| DB0UT-7 | 2026-09-03 06:41:46 | 46.74249 | 2.95178 | 127° | 117km/h | 13124m | 3.6m/s | 0°C | 0% | 0hPa | 0V | 00:00:00 | 00:00:00 | 00:00:00 | |
| DB0UT-7 | 2026-09-03 06:41:14 | 46.74832 | 2.94112 | 124° | 111km/h | 12981m | 4.6m/s | 0°C | 0% | 0hPa | 0V | 00:00:00 | 00:00:00 | 00:00:00 | |
| DB0UT-7 | 2026-09-03 06:40:44 | 46.75328 | 2.93123 | 127° | 110km/h | 12855m | 3.2m/s | 0°C | 0% | 0hPa | 0V | 00:00:00 | 00:00:00 | 00:00:00 | |
| DB0UT-7 | 2026-09-03 06:39:39 | 46.76379 | 2.91073 | 137° | 117km/h | 12525m | 4.0m/s | 0°C | 0% | 0hPa | 0V | 00:00:00 | 00:00:00 | 00:00:00 | |
| DB0UT-7 | 2026-09-03 06:39:09 | 46.77022 | 2.90193 | 138° | 119km/h | 12395m | 4.1m/s | 0°C | 0% | 0hPa | 0V | 00:00:00 | 00:00:00 | 00:00:00 | |
| DB0UT-7 | 2026-09-03 06:38:39 | 46.77661 | 2.89281 | 134° | 115km/h | 12265m | 3.4m/s | 0°C | 0% | 0hPa | 0V | 00:00:00 | 00:00:00 | 00:00:00 | |
| DB0UT-7 | 2026-09-03 06:37:51 | 46.78635 | 2.87861 | 135° | 115km/h | 12061m | 3.6m/s | 0°C | 0% | 0hPa | 0V | 00:00:00 | 00:00:00 | 00:00:00 | |
| DB0UT-7 | 2026-09-03 06:37:21 | 46.79240 | 2.86947 | 134° | 113km/h | 11934m | 3.5m/s | 0°C | 0% | 0hPa | 0V | 00:00:00 | 00:00:00 | 00:00:00 | |
| DB0UT-7 | 2026-09-03 06:35:39 | 46.81212 | 2.83901 | 133° | 95km/h | 11490m | 4.4m/s | 0°C | 0% | 0hPa | 0V | 00:00:00 | 00:00:00 | 00:00:00 | |
| DB0UT-7 | 2026-09-03 06:34:25 | 46.82455 | 2.82003 | 144° | 88km/h | 11029m | 6.1m/s | 0°C | 0% | 0hPa | 0V | 00:00:00 | 00:00:00 | 00:00:00 | |
| DB0UT-7 | 2026-09-03 06:33:54 | 46.82999 | 2.81440 | 148° | 86km/h | 10866m | 3.3m/s | 0°C | 0% | 0hPa | 0V | 00:00:00 | 00:00:00 | 00:00:00 | |
| DB0UT-7 | 2026-09-03 06:31:59 | 46.85164 | 2.79631 | 151° | 84km/h | 10376m | 5.5m/s | 0°C | 0% | 0hPa | 0V | 00:00:00 | 00:00:00 | 00:00:00 |